sensor_id;sensor_type;location;lat;lon;timestamp;P1;durP1;ratioP1;P2;durP2;ratioP2
26177;SDS011;13924;47.670;10.310;2023-06-19T00:00:41;9.5;;;8.6;;
26177;SDS011;13924;47.670;10.310;2023-06-19T00:15:41;10.2;;;9.2;;
26177;SDS011;13924;47.670;10.310;2023-06-19T00:30:43;9.3;;;8.4;;
26177;SDS011;13924;47.670;10.310;2023-06-19T00:45:42;9.3;;;8.5;;
26177;SDS011;13924;47.670;10.310;2023-06-19T01:00:44;9.5;;;8.6;;
26177;SDS011;13924;47.670;10.310;2023-06-19T01:01:34;9.4;;;8.6;;
26177;SDS011;13924;47.670;10.310;2023-06-19T01:15:44;9.3;;;8.5;;
26177;SDS011;13924;47.670;10.310;2023-06-19T01:30:44;10.6;;;8.8;;
26177;SDS011;13924;47.670;10.310;2023-06-19T01:45:46;9.8;;;8.9;;
26177;SDS011;13924;47.670;10.310;2023-06-19T02:00:46;9.2;;;8.4;;
26177;SDS011;13924;47.670;10.310;2023-06-19T02:15:46;9.7;;;8.8;;
26177;SDS011;13924;47.670;10.310;2023-06-19T02:30:47;9.1;;;8.4;;
26177;SDS011;13924;47.670;10.310;2023-06-19T02:45:48;11.1;;;9.0;;
26177;SDS011;13924;47.670;10.310;2023-06-19T03:00:49;9.2;;;8.4;;
26177;SDS011;13924;47.670;10.310;2023-06-19T03:15:51;9.4;;;8.6;;
26177;SDS011;13924;47.670;10.310;2023-06-19T03:29:00;9.8;;;8.9;;
26177;SDS011;13924;47.670;10.310;2023-06-19T03:44:01;10.5;;;9.2;;
26177;SDS011;13924;47.670;10.310;2023-06-19T03:59:02;9.7;;;8.8;;
26177;SDS011;13924;47.670;10.310;2023-06-19T04:14:03;10.9;;;9.1;;
26177;SDS011;13924;47.670;10.310;2023-06-19T04:29:03;11.3;;;9.5;;
26177;SDS011;13924;47.670;10.310;2023-06-19T04:44:05;9.1;;;8.3;;
26177;SDS011;13924;47.670;10.310;2023-06-19T04:59:08;23.2;;;9.5;;
26177;SDS011;13924;47.670;10.310;2023-06-19T05:14:35;10.0;;;8.8;;
26177;SDS011;13924;47.670;10.310;2023-06-19T05:29:11;10.4;;;9.5;;
26177;SDS011;13924;47.670;10.310;2023-06-19T05:44:08;10.3;;;9.2;;
26177;SDS011;13924;47.670;10.310;2023-06-19T05:59:14;10.4;;;9.2;;
26177;SDS011;13924;47.670;10.310;2023-06-19T06:14:15;8.9;;;8.0;;
26177;SDS011;13924;47.670;10.310;2023-06-19T06:29:34;8.8;;;7.8;;
26177;SDS011;13924;47.670;10.310;2023-06-19T06:44:29;8.4;;;7.7;;
26177;SDS011;13924;47.670;10.310;2023-06-19T06:59:11;7.5;;;6.9;;
26177;SDS011;13924;47.670;10.310;2023-06-19T07:14:24;6.4;;;5.9;;
26177;SDS011;13924;47.670;10.310;2023-06-19T07:29:12;6.2;;;5.7;;
26177;SDS011;13924;47.670;10.310;2023-06-19T07:44:23;6.6;;;6.1;;
26177;SDS011;13924;47.670;10.310;2023-06-19T07:59:14;5.9;;;5.4;;
26177;SDS011;13924;47.670;10.310;2023-06-19T08:14:18;5.3;;;4.9;;
26177;SDS011;13924;47.670;10.310;2023-06-19T08:29:25;4.9;;;4.6;;
26177;SDS011;13924;47.670;10.310;2023-06-19T08:59:27;6.3;;;5.8;;
26177;SDS011;13924;47.670;10.310;2023-06-19T09:14:31;5.8;;;5.4;;
26177;SDS011;13924;47.670;10.310;2023-06-19T09:44:28;6.6;;;6.1;;
26177;SDS011;13924;47.670;10.310;2023-06-19T10:14:24;6.6;;;6.1;;
26177;SDS011;13924;47.670;10.310;2023-06-19T10:29:26;7.3;;;6.1;;
26177;SDS011;13924;47.670;10.310;2023-06-19T10:44:23;7.6;;;7.0;;
26177;SDS011;13924;47.670;10.310;2023-06-19T10:59:24;5.4;;;5.0;;
26177;SDS011;13924;47.670;10.310;2023-06-19T11:14:28;5.6;;;5.2;;
26177;SDS011;13924;47.670;10.310;2023-06-19T11:29:29;5.8;;;5.0;;
26177;SDS011;13924;47.670;10.310;2023-06-19T11:44:28;4.9;;;4.5;;
26177;SDS011;13924;47.670;10.310;2023-06-19T11:59:28;4.0;;;3.7;;
26177;SDS011;13924;47.670;10.310;2023-06-19T12:14:29;4.4;;;4.1;;
26177;SDS011;13924;47.670;10.310;2023-06-19T12:29:29;4.2;;;3.8;;
26177;SDS011;13924;47.670;10.310;2023-06-19T12:44:31;4.2;;;3.9;;
26177;SDS011;13924;47.670;10.310;2023-06-19T12:59:32;4.3;;;4.0;;
26177;SDS011;13924;47.670;10.310;2023-06-19T13:14:32;4.3;;;3.9;;
26177;SDS011;13924;47.670;10.310;2023-06-19T13:29:33;4.6;;;4.1;;
26177;SDS011;13924;47.670;10.310;2023-06-19T13:44:36;5.0;;;4.5;;
26177;SDS011;13924;47.670;10.310;2023-06-19T13:59:37;5.9;;;4.4;;
26177;SDS011;13924;47.670;10.310;2023-06-19T14:14:36;5.8;;;5.2;;
26177;SDS011;13924;47.670;10.310;2023-06-19T14:29:36;4.9;;;4.5;;
26177;SDS011;13924;47.670;10.310;2023-06-19T14:44:37;4.5;;;4.1;;
26177;SDS011;13924;47.670;10.310;2023-06-19T14:59:39;4.5;;;4.1;;
26177;SDS011;13924;47.670;10.310;2023-06-19T15:14:38;4.5;;;4.1;;
26177;SDS011;13924;47.670;10.310;2023-06-19T15:29:39;5.4;;;4.9;;
26177;SDS011;13924;47.670;10.310;2023-06-19T15:44:40;6.6;;;4.6;;
26177;SDS011;13924;47.670;10.310;2023-06-19T15:59:40;4.8;;;4.5;;
26177;SDS011;13924;47.670;10.310;2023-06-19T16:14:41;5.4;;;4.9;;
26177;SDS011;13924;47.670;10.310;2023-06-19T16:29:42;5.6;;;4.7;;
26177;SDS011;13924;47.670;10.310;2023-06-19T16:44:42;5.8;;;5.2;;
26177;SDS011;13924;47.670;10.310;2023-06-19T16:59:44;6.3;;;5.8;;
26177;SDS011;13924;47.670;10.310;2023-06-19T17:14:44;6.5;;;5.9;;
26177;SDS011;13924;47.670;10.310;2023-06-19T17:29:45;6.0;;;5.4;;
26177;SDS011;13924;47.670;10.310;2023-06-19T17:44:46;5.1;;;4.7;;
26177;SDS011;13924;47.670;10.310;2023-06-19T17:59:47;5.0;;;4.7;;
26177;SDS011;13924;47.670;10.310;2023-06-19T18:14:47;5.8;;;5.2;;
26177;SDS011;13924;47.670;10.310;2023-06-19T18:29:49;7.7;;;6.2;;
26177;SDS011;13924;47.670;10.310;2023-06-19T18:44:58;7.5;;;6.4;;
26177;SDS011;13924;47.670;10.310;2023-06-19T18:59:52;15.7;;;13.3;;
26177;SDS011;13924;47.670;10.310;2023-06-19T19:14:54;14.7;;;12.7;;
26177;SDS011;13924;47.670;10.310;2023-06-19T19:29:52;11.8;;;10.6;;
26177;SDS011;13924;47.670;10.310;2023-06-19T19:45:04;10.4;;;9.1;;
26177;SDS011;13924;47.670;10.310;2023-06-19T20:00:06;9.3;;;8.3;;
26177;SDS011;13924;47.670;10.310;2023-06-19T20:15:00;6.1;;;5.5;;
26177;SDS011;13924;47.670;10.310;2023-06-19T20:30:09;9.5;;;8.5;;
26177;SDS011;13924;47.670;10.310;2023-06-19T20:45:00;7.0;;;6.3;;
26177;SDS011;13924;47.670;10.310;2023-06-19T21:00:06;7.2;;;6.5;;
26177;SDS011;13924;47.670;10.310;2023-06-19T21:15:01;8.1;;;7.3;;
26177;SDS011;13924;47.670;10.310;2023-06-19T21:29:59;6.7;;;6.1;;
26177;SDS011;13924;47.670;10.310;2023-06-19T21:45:00;6.6;;;5.8;;
26177;SDS011;13924;47.670;10.310;2023-06-19T22:00:13;7.0;;;6.4;;
26177;SDS011;13924;47.670;10.310;2023-06-19T22:15:44;7.6;;;6.8;;
26177;SDS011;13924;47.670;10.310;2023-06-19T22:30:46;8.5;;;7.0;;
26177;SDS011;13924;47.670;10.310;2023-06-19T22:45:44;7.7;;;6.9;;
26177;SDS011;13924;47.670;10.310;2023-06-19T23:00:50;7.4;;;6.8;;
26177;SDS011;13924;47.670;10.310;2023-06-19T23:15:44;8.4;;;7.6;;
26177;SDS011;13924;47.670;10.310;2023-06-19T23:30:49;8.2;;;7.3;;
26177;SDS011;13924;47.670;10.310;2023-06-19T23:45:47;8.6;;;7.8;;
